Flight Track Log - Related Links

Times and Time Zones

All times are in EDT time to prevent confusion due to time zone crossing. See the UCA597 flight status page for this flight to view local times or setup timezone preferences in your user account.

Time Position Orientation Groundspeed Altitude Reporting Facility
EDT Latitude Longitude Course Direction KTS MPH feet Rate Location/Type
Wed 05:45:02 PM 39.0000 -77.4500 North 155 178 2,500  Level Potomac TRACON
Wed 05:47:05 PM 39.0689 -77.5219 321° Northwest 168 193 5,300 1,402 Climbing Washington Center
Wed 05:48:06 PM 39.1122 -77.5444 338° Northwest 169 194 6,800 1,426 Climbing Washington Center
Wed 05:49:07 PM 39.1600 -77.5592 347° North 169 194 8,200 1,261 Climbing Washington Center
Wed 05:50:00 PM 39.3290 -77.4500 North  Level FlightAware Approximate
Wed 05:50:05 PM 39.2097 -77.5711 349° North 169 194 9,300  Level Washington Center
Wed 05:51:05 PM 39.2619 -77.5697 North 175 201 10,500 1,150 Climbing Washington Center
Wed 05:52:05 PM 39.3164 -77.5525 14° North 180 207 11,600 1,091 Climbing Washington Center
Wed 05:53:06 PM 39.3731 -77.5353 13° North 192 221 12,700 1,041 Climbing Washington Center
Wed 05:54:06 PM 39.4294 -77.5181 13° North 198 228 13,700 958 Climbing Washington Center
Wed 05:55:05 PM 39.4861 -77.5006 13° North 204 235 14,600 908 Climbing Washington Center
Wed 05:56:05 PM 39.5467 -77.4833 12° North 209 241 15,500 907 Climbing Washington Center
Wed 05:57:57 PM 39.6658 -77.4517 12° North 217 250 17,200 872 Climbing New York Center
Wed 05:58:57 PM 39.7283 -77.4522 360° North 224 258 18,000 900 Climbing New York Center
Wed 05:59:57 PM 39.7886 -77.4525 360° North 213 245 19,000 496 Climbing New York Center
Wed 06:00:58 PM 39.8533 -77.4506 North 218 251 19,000  Level New York Center
Wed 06:01:57 PM 39.9225 -77.4489 North 233 268 19,000  Level New York Center
Wed 06:02:57 PM 39.9914 -77.4475 North 239 275 19,000  Level New York Center
Wed 06:03:57 PM 40.0622 -77.4461 North 244 281 19,000  Level New York Center
Wed 06:04:57 PM 40.1311 -77.4444 North 244 281 19,000  Level New York Center
Wed 06:05:57 PM 40.2022 -77.4433 North 249 287 19,000  Level New York Center
Wed 06:06:57 PM 40.2708 -77.4444 359° North 254 292 19,000  Level New York Center
Wed 06:07:57 PM 40.3397 -77.4428 North 254 292 19,000  Level New York Center
Wed 06:08:57 PM 40.4106 -77.4414 North 254 292 19,000  Level New York Center
Wed 06:09:57 PM 40.4814 -77.4431 359° North 254 292 19,000  Level New York Center
Wed 06:10:57 PM 40.5503 -77.4414 North 254 292 19,000  Level New York Center
Wed 06:11:57 PM 40.6214 -77.4400 North 254 292 19,000  Level New York Center
Wed 06:12:57 PM 40.6925 -77.4361 North 254 292 19,000 -150 Level New York Center
Wed 06:13:57 PM 40.7636 -77.4319 North 254 292 18,700 -400 Descending New York Center
Wed 06:14:57 PM 40.8339 -77.4058 16° North 254 292 18,200 -450 Descending New York Center
Wed 06:15:57 PM 40.9061 -77.3772 17° North 259 298 17,800 -500 Descending New York Center
Wed 06:16:57 PM 40.9594 -77.3219 38° Northeast 259 298 17,200 -400 Descending New York Center
Wed 06:17:57 PM 41.0192 -77.2589 39° Northeast 264 304 17,000 -100 Descending New York Center
Wed 06:18:57 PM 41.0853 -77.1908 38° Northeast 270 311 17,000  Level New York Center
Wed 06:19:57 PM 41.1428 -77.1275 40° Northeast 265 305 17,000  Level New York Center
Wed 06:20:57 PM 41.2025 -77.0642 39° Northeast 265 305 17,000  Level New York Center
Wed 06:21:57 PM 41.2619 -77.0033 38° Northeast 265 305 17,000 -300 Level New York Center
Wed 06:22:57 PM 41.3217 -76.9397 39° Northeast 265 305 16,400 -600 Descending New York Center
Wed 06:23:57 PM 41.3856 -76.8708 39° Northeast 265 305 15,800 -600 Descending New York Center
Wed 06:24:57 PM 41.4472 -76.8044 39° Northeast 270 311 15,200 -650 Descending New York Center
Wed 06:25:57 PM 41.5133 -76.7358 38° Northeast 282 325 14,500 -650 Descending New York Center
Wed 06:26:57 PM 41.5750 -76.6664 40° Northeast 289 333 13,900 -750 Descending New York Center
Wed 06:27:57 PM 41.6389 -76.5969 39° Northeast 289 333 13,000 -950 Descending New York Center
Wed 06:28:57 PM 41.7047 -76.5278 38° Northeast 289 333 12,000 -950 Descending New York Center
Wed 06:29:57 PM 41.7522 -76.4511 50° Northeast 289 333 11,100 -900 Descending New York Center
Wed 06:30:57 PM 41.7842 -76.3453 68° East 295 339 10,200 -1,000 Descending New York Center
Wed 06:31:57 PM 41.8264 -76.2431 61° Northeast 295 339 9,100 -1,050 Descending New York Center
Wed 06:32:57 PM 41.8839 -76.1728 42° Northeast 280 322 8,100 -1,000 Descending New York Center
Wed 06:33:57 PM 41.9428 -76.1133 37° Northeast 268 308 7,100 -1,100 Descending New York Center
Wed 06:35:00 PM 42.0119 -76.1152 359° North  Level FlightAware Approximate
Wed 06:35:57 PM 42.0722 -76.0119 359° North 263 303 4,800  Level New York Center
Wed 06:36:57 PM 42.1219 -75.9686 33° Northeast 239 275 3,800 -1,100 Descending New York Center
Wed 06:37:57 PM 42.1600 -75.9519 18° North 185 213 2,600 -900 Descending New York Center
Wed 06:38:57 PM 42.1867 -75.9653 340° North 133 153 2,000 3,200 Descending New York Center
Wed 06:39:57 PM 42.2286 -75.9572 North 133 153 9,000 3,500 Climbing New York Center
Wed 06:40:57 PM 42.2642 -75.9544 North 133 153 9,000  Level New York Center
Wed 06:41:57 PM 42.3017 -75.9492 North 133 153 9,000  Level New York Center
Wed 06:43:00 PM 42.2354 -75.9709 194° South  Level Estimated

Login

Don't have an account? Register now (free) for customized features, flight alerts, and more!